createdAt,value
2018-04-25T00:00:05.397Z,65.05
2018-04-25T00:00:36.965Z,65.10
2018-04-25T00:01:08.547Z,64.96
2018-04-25T00:01:40.172Z,64.97
2018-04-25T00:02:11.748Z,65.03
2018-04-25T00:02:43.345Z,64.88
2018-04-25T00:03:14.954Z,64.82
2018-04-25T00:03:46.524Z,64.80
2018-04-25T00:04:18.102Z,64.77
2018-04-25T00:04:49.687Z,64.79
2018-04-25T00:05:21.290Z,64.84
2018-04-25T00:05:52.874Z,64.91
2018-04-25T00:06:24.485Z,64.85
2018-04-25T00:06:56.116Z,65.02
2018-04-25T00:07:27.712Z,64.91
2018-04-25T00:07:59.399Z,64.88
2018-04-25T00:08:30.944Z,64.90
2018-04-25T00:09:02.530Z,64.85
2018-04-25T00:09:34.143Z,64.84
2018-04-25T00:10:05.756Z,64.96
2018-04-25T00:10:37.348Z,64.76
2018-04-25T00:11:08.954Z,64.94
2018-04-25T00:11:40.614Z,64.95
2018-04-25T00:12:12.204Z,64.92
2018-04-25T00:12:43.806Z,64.72
2018-04-25T00:13:15.390Z,64.83
2018-04-25T00:13:46.995Z,64.89
2018-04-25T00:14:18.584Z,64.77
2018-04-25T00:14:50.176Z,64.75
2018-04-25T00:15:21.758Z,64.81
2018-04-25T00:15:53.369Z,64.98
2018-04-25T00:16:24.978Z,64.89
2018-04-25T00:16:56.616Z,64.72
2018-04-25T00:17:28.278Z,64.76
2018-04-25T00:17:59.891Z,64.84
2018-04-25T00:18:31.485Z,64.80
2018-04-25T00:19:03.069Z,64.84
2018-04-25T00:19:34.655Z,64.98
2018-04-25T00:20:06.239Z,64.81
2018-04-25T00:20:37.834Z,64.79
2018-04-25T00:21:09.415Z,64.82
2018-04-25T00:21:40.994Z,64.83
2018-04-25T00:22:12.601Z,64.91
2018-04-25T00:22:44.252Z,64.80
2018-04-25T00:23:15.833Z,64.81
2018-04-25T00:23:47.438Z,64.81
2018-04-25T00:24:19.079Z,64.78
2018-04-25T00:24:50.615Z,64.87
2018-04-25T00:25:22.204Z,64.95
2018-04-25T00:25:53.821Z,64.92
2018-04-25T00:26:25.406Z,65.05
2018-04-25T00:26:56.976Z,65.01
2018-04-25T00:27:28.586Z,65.09
2018-04-25T00:28:00.198Z,65.30
2018-04-25T00:28:31.841Z,65.29
2018-04-25T00:29:03.440Z,65.38
2018-04-25T00:29:35.051Z,65.35
2018-04-25T00:30:06.634Z,65.62
2018-04-25T00:30:38.238Z,65.69
2018-04-25T00:31:09.846Z,65.68
2018-04-25T00:31:41.420Z,65.47
2018-04-25T00:32:13.026Z,65.63
2018-04-25T00:32:44.663Z,65.56
2018-04-25T00:33:16.263Z,65.75
2018-04-25T00:33:47.866Z,65.70
2018-04-25T00:34:19.437Z,65.73
2018-04-25T00:34:51.010Z,65.78
2018-04-25T00:35:22.590Z,65.81
2018-04-25T00:35:54.160Z,66.11
2018-04-25T00:36:25.761Z,65.80
2018-04-25T00:36:57.374Z,65.71
2018-04-25T00:37:28.977Z,66.03
2018-04-25T00:38:00.601Z,66.01
2018-04-25T00:38:32.186Z,65.91
2018-04-25T00:39:03.780Z,65.94
2018-04-25T00:39:35.370Z,66.12
2018-04-25T00:40:06.954Z,66.21
2018-04-25T00:40:38.528Z,66.22
2018-04-25T00:41:10.096Z,66.08
2018-04-25T00:41:41.728Z,66.18
2018-04-25T00:42:13.334Z,66.75
2018-04-25T00:42:44.910Z,66.53
2018-04-25T00:43:16.514Z,66.49
2018-04-25T00:43:48.127Z,66.65
2018-04-25T00:44:19.725Z,66.44
2018-04-25T00:44:51.301Z,66.90
2018-04-25T00:45:22.883Z,66.68
2018-04-25T00:45:54.491Z,67.17
2018-04-25T00:46:26.082Z,67.07
2018-04-25T00:46:57.662Z,67.35
2018-04-25T00:47:29.234Z,67.11
2018-04-25T00:48:00.875Z,67.27
2018-04-25T00:48:32.469Z,67.28
2018-04-25T00:49:04.055Z,67.45
2018-04-25T00:49:35.658Z,67.14
2018-04-25T00:50:07.309Z,67.14
2018-04-25T00:50:38.894Z,67.31
2018-04-25T00:51:10.478Z,67.58
2018-04-25T00:51:42.101Z,67.49
2018-04-25T00:52:13.678Z,67.31
2018-04-25T00:52:45.261Z,67.31
2018-04-25T00:53:16.875Z,67.40
2018-04-25T00:53:48.453Z,67.82
2018-04-25T00:54:20.054Z,67.77
2018-04-25T00:54:51.648Z,68.40
2018-04-25T00:55:23.246Z,67.76
2018-04-25T00:55:54.830Z,67.73
2018-04-25T00:56:26.437Z,68.05
2018-04-25T00:56:58.049Z,67.99
2018-04-25T00:57:29.650Z,68.21
2018-04-25T00:58:01.238Z,68.19
2018-04-25T00:58:32.829Z,68.33
2018-04-25T00:59:04.440Z,68.08
2018-04-25T00:59:36.049Z,68.27
2018-04-25T01:00:07.634Z,68.21
2018-04-25T01:00:39.242Z,68.46
2018-04-25T01:01:10.836Z,68.29
2018-04-25T01:01:42.425Z,68.16
2018-04-25T01:02:14.041Z,67.99
2018-04-25T01:02:45.608Z,67.86
2018-04-25T01:03:17.214Z,67.67
2018-04-25T01:03:48.807Z,68.14
2018-04-25T01:04:20.457Z,68.08
2018-04-25T01:04:52.106Z,68.08
2018-04-25T01:05:23.693Z,68.30
2018-04-25T01:05:56.298Z,68.53
2018-04-25T01:06:27.886Z,68.58
2018-04-25T01:06:59.469Z,68.50
2018-04-25T01:07:31.069Z,68.59
2018-04-25T01:08:02.678Z,68.64
2018-04-25T01:08:34.316Z,68.97
2018-04-25T01:09:05.921Z,68.58
2018-04-25T01:09:37.520Z,68.49
2018-04-25T01:10:09.110Z,68.28
2018-04-25T01:10:40.714Z,68.60
2018-04-25T01:11:12.306Z,68.52
2018-04-25T01:11:43.993Z,68.51
2018-04-25T01:12:15.483Z,68.33
2018-04-25T01:12:47.138Z,68.23
2018-04-25T01:13:18.722Z,68.45
2018-04-25T01:13:50.329Z,68.38
2018-04-25T01:14:21.929Z,68.41
2018-04-25T01:14:53.511Z,68.29
2018-04-25T01:15:25.098Z,68.56
2018-04-25T01:15:56.689Z,68.54
2018-04-25T01:16:28.278Z,68.34
2018-04-25T01:16:59.881Z,68.54
2018-04-25T01:17:31.489Z,68.18
2018-04-25T01:18:03.075Z,68.04
2018-04-25T01:18:34.702Z,68.54
2018-04-25T01:19:06.310Z,68.32
2018-04-25T01:19:37.923Z,68.35
2018-04-25T01:20:09.548Z,68.29
2018-04-25T01:20:41.134Z,68.36
2018-04-25T01:21:12.737Z,68.25
2018-04-25T01:21:44.332Z,68.21
2018-04-25T01:22:15.926Z,68.25
2018-04-25T01:22:47.518Z,68.13
2018-04-25T01:23:19.093Z,68.28
2018-04-25T01:23:50.718Z,67.90
2018-04-25T01:24:22.310Z,67.86
2018-04-25T01:24:53.916Z,67.90
2018-04-25T01:25:25.530Z,67.84
2018-04-25T01:26:02.944Z,68.07
2018-04-25T01:26:34.537Z,67.76
2018-04-25T01:27:06.130Z,67.84
2018-04-25T01:27:37.729Z,67.68
2018-04-25T01:28:09.325Z,67.77
2018-04-25T01:28:40.933Z,67.74
2018-04-25T01:29:12.552Z,67.69
2018-04-25T01:29:44.195Z,67.58
2018-04-25T01:30:15.785Z,67.56
2018-04-25T01:30:47.390Z,67.61
2018-04-25T01:31:18.979Z,67.58
2018-04-25T01:31:50.582Z,67.42
2018-04-25T01:32:22.174Z,67.35
2018-04-25T01:32:53.761Z,67.36
2018-04-25T01:33:25.344Z,67.41
2018-04-25T01:33:56.954Z,67.35
2018-04-25T01:34:28.598Z,67.34
2018-04-25T01:35:00.182Z,67.33
2018-04-25T01:35:31.776Z,67.29
2018-04-25T01:36:03.385Z,67.24
2018-04-25T01:36:35.009Z,67.12
2018-04-25T01:37:06.604Z,67.10
2018-04-25T01:37:38.249Z,67.19
2018-04-25T01:38:09.853Z,67.06
2018-04-25T01:38:41.449Z,67.14
2018-04-25T01:39:13.058Z,67.14
2018-04-25T01:39:44.661Z,67.26
2018-04-25T01:40:16.256Z,67.00
2018-04-25T01:40:47.870Z,67.11
2018-04-25T01:41:19.458Z,67.12
2018-04-25T01:41:51.048Z,66.93
2018-04-25T01:42:22.658Z,67.04
2018-04-25T01:42:54.305Z,66.86
2018-04-25T01:43:25.916Z,66.94
2018-04-25T01:43:57.484Z,66.88
2018-04-25T01:44:29.057Z,66.82
2018-04-25T01:45:00.638Z,66.88
2018-04-25T01:45:32.205Z,66.85
2018-04-25T01:46:03.797Z,66.84
2018-04-25T01:46:35.390Z,66.82
2018-04-25T01:47:06.961Z,66.82
2018-04-25T01:47:38.562Z,66.80
2018-04-25T01:48:10.211Z,66.78
2018-04-25T01:48:41.805Z,66.76
2018-04-25T01:49:13.409Z,66.73
2018-04-25T01:49:45.071Z,66.82
2018-04-25T01:50:16.645Z,66.77
2018-04-25T01:50:48.231Z,66.73
2018-04-25T01:51:19.810Z,66.74
2018-04-25T01:51:51.420Z,66.68
2018-04-25T01:52:23.025Z,66.69
2018-04-25T01:52:54.634Z,66.74
2018-04-25T01:53:26.232Z,66.63
2018-04-25T01:53:57.838Z,66.74
2018-04-25T01:54:29.455Z,66.69
2018-04-25T01:55:01.076Z,66.61
2018-04-25T01:55:32.668Z,66.64
2018-04-25T01:56:04.255Z,66.63
2018-04-25T01:56:35.858Z,66.60
2018-04-25T01:57:07.442Z,66.55
2018-04-25T01:57:39.036Z,66.59
2018-04-25T01:58:10.618Z,66.62
2018-04-25T01:58:42.263Z,66.60
2018-04-25T01:59:13.851Z,66.47
2018-04-25T01:59:45.473Z,66.51
2018-04-25T02:00:17.057Z,66.56
2018-04-25T02:00:48.666Z,66.47
2018-04-25T02:01:20.321Z,66.48
2018-04-25T02:01:51.914Z,66.44
2018-04-25T02:02:23.503Z,66.46
2018-04-25T02:02:55.130Z,66.47
2018-04-25T02:03:26.714Z,66.49
2018-04-25T02:03:58.304Z,66.43
2018-04-25T02:04:29.889Z,66.47
2018-04-25T02:05:01.489Z,66.57
2018-04-25T02:05:33.074Z,66.48
2018-04-25T02:06:04.640Z,66.54
2018-04-25T02:06:36.208Z,66.50
2018-04-25T02:07:07.787Z,66.48
2018-04-25T02:07:39.366Z,66.45
2018-04-25T02:08:10.985Z,66.39
2018-04-25T02:08:42.576Z,66.47
2018-04-25T02:09:14.176Z,66.40
2018-04-25T02:09:45.758Z,66.34
2018-04-25T02:10:17.357Z,66.42
2018-04-25T02:10:48.977Z,66.39
2018-04-25T02:11:20.594Z,66.34
2018-04-25T02:11:52.197Z,66.42
2018-04-25T02:12:23.772Z,66.41
2018-04-25T02:12:55.375Z,66.35
2018-04-25T02:13:26.977Z,66.39
2018-04-25T02:13:58.548Z,66.32
2018-04-25T02:14:30.120Z,66.43
2018-04-25T02:15:01.733Z,66.44
2018-04-25T02:15:33.332Z,66.46
2018-04-25T02:16:04.944Z,66.56
2018-04-25T02:16:36.550Z,66.50
2018-04-25T02:17:08.158Z,66.40
2018-04-25T02:17:39.762Z,66.51
2018-04-25T02:18:11.361Z,66.59
2018-04-25T02:18:42.942Z,66.50
2018-04-25T02:19:14.560Z,66.61
2018-04-25T02:19:46.145Z,66.81
2018-04-25T02:20:17.753Z,66.85
2018-04-25T02:20:49.348Z,66.81
2018-04-25T02:21:20.944Z,66.76
2018-04-25T02:21:52.554Z,66.58
2018-04-25T02:22:24.129Z,66.77
2018-04-25T02:22:55.706Z,66.73
2018-04-25T02:23:27.287Z,66.76
2018-04-25T02:23:58.878Z,66.81
2018-04-25T02:24:30.530Z,66.71
2018-04-25T02:25:02.194Z,66.75
2018-04-25T02:25:33.810Z,66.72
2018-04-25T02:26:05.380Z,66.93
2018-04-25T02:26:36.972Z,66.64
2018-04-25T02:27:08.558Z,66.80
2018-04-25T02:27:40.142Z,66.69
2018-04-25T02:28:11.721Z,66.87
2018-04-25T02:28:43.306Z,66.89
2018-04-25T02:29:14.886Z,66.89
2018-04-25T02:29:46.489Z,66.83
2018-04-25T02:30:18.122Z,66.79
2018-04-25T02:30:49.726Z,66.74
2018-04-25T02:31:21.312Z,66.69
2018-04-25T02:31:52.899Z,66.65
2018-04-25T02:32:24.506Z,66.61
2018-04-25T02:32:56.114Z,66.71
2018-04-25T02:33:27.689Z,66.79
2018-04-25T02:33:59.275Z,66.82
2018-04-25T02:34:30.891Z,66.70
2018-04-25T02:35:02.489Z,66.72
2018-04-25T02:35:34.127Z,66.76
2018-04-25T02:36:05.729Z,66.64
2018-04-25T02:36:37.318Z,66.72
2018-04-25T02:37:08.924Z,66.62
2018-04-25T02:37:40.573Z,66.63
2018-04-25T02:38:12.158Z,66.63
2018-04-25T02:38:43.746Z,66.70
2018-04-25T02:39:15.330Z,66.70
2018-04-25T02:39:46.924Z,66.61
2018-04-25T02:40:18.497Z,66.60
2018-04-25T02:40:50.106Z,66.91
2018-04-25T02:41:21.713Z,66.73
2018-04-25T02:41:53.319Z,66.71
2018-04-25T02:42:24.905Z,66.47
2018-04-25T02:42:56.517Z,66.28
2018-04-25T02:43:28.098Z,66.32
2018-04-25T02:43:59.669Z,66.35
2018-04-25T02:44:31.296Z,66.34
2018-04-25T02:45:02.889Z,66.31
2018-04-25T02:45:34.493Z,66.15
2018-04-25T02:46:06.082Z,65.90
2018-04-25T02:46:37.675Z,65.85
2018-04-25T02:47:09.264Z,65.77
2018-04-25T02:47:40.872Z,65.80
2018-04-25T02:48:12.496Z,65.85
2018-04-25T02:48:44.105Z,65.84
2018-04-25T02:49:15.714Z,65.80
2018-04-25T02:49:47.365Z,65.77
2018-04-25T02:50:18.949Z,65.70
2018-04-25T02:50:50.530Z,65.71
2018-04-25T02:51:22.114Z,65.68
2018-04-25T02:51:53.702Z,65.66
2018-04-25T02:52:25.309Z,65.62
2018-04-25T02:52:56.914Z,65.52
2018-04-25T02:53:28.518Z,64.96
2018-04-25T02:54:00.142Z,59.50
2018-04-25T02:54:31.737Z,60.25
2018-04-25T02:55:03.418Z,58.42
2018-04-25T02:55:34.993Z,59.63
2018-04-25T02:56:06.601Z,56.10
2018-04-25T02:56:38.206Z,58.39
2018-04-25T02:57:09.782Z,57.86
2018-04-25T02:57:41.362Z,58.51
2018-04-25T02:58:12.960Z,57.28
2018-04-25T02:58:44.554Z,58.75
2018-04-25T02:59:16.123Z,58.49
2018-04-25T02:59:47.706Z,58.53
2018-04-25T03:00:19.347Z,59.48
2018-04-25T03:00:50.926Z,59.07
2018-04-25T03:01:22.522Z,58.82
2018-04-25T03:01:54.093Z,58.67
2018-04-25T03:02:25.674Z,59.26
2018-04-25T03:02:57.254Z,59.24
2018-04-25T03:03:28.862Z,59.82
2018-04-25T03:04:00.450Z,59.83
2018-04-25T03:04:32.034Z,60.07
2018-04-25T03:05:03.630Z,60.32
2018-04-25T03:05:35.210Z,60.44
2018-04-25T03:06:06.815Z,60.83
2018-04-25T03:06:38.398Z,60.61
2018-04-25T03:07:09.992Z,60.88
2018-04-25T03:07:41.577Z,61.25
2018-04-25T03:08:13.178Z,61.23
2018-04-25T03:08:44.783Z,61.11
2018-04-25T03:09:16.366Z,61.06
2018-04-25T03:09:47.954Z,60.92
2018-04-25T03:10:19.536Z,60.76
2018-04-25T03:10:51.170Z,60.57
2018-04-25T03:11:22.774Z,60.54
2018-04-25T03:11:54.359Z,60.45
2018-04-25T03:12:25.940Z,60.39
2018-04-25T03:12:57.551Z,60.39
2018-04-25T03:13:29.158Z,60.36
2018-04-25T03:14:00.757Z,60.36
2018-04-25T03:14:32.343Z,60.50
2018-04-25T03:15:03.916Z,60.44
2018-04-25T03:15:35.508Z,60.51
2018-04-25T03:16:07.152Z,60.55
2018-04-25T03:16:38.740Z,60.62
2018-04-25T03:17:10.322Z,60.72
2018-04-25T03:17:41.916Z,60.61
2018-04-25T03:18:13.561Z,60.65
2018-04-25T03:18:45.146Z,60.64
2018-04-25T03:19:16.750Z,60.75
2018-04-25T03:19:48.340Z,60.65
2018-04-25T03:20:19.950Z,60.73
2018-04-25T03:20:51.534Z,60.86
2018-04-25T03:21:23.115Z,60.84
2018-04-25T03:21:54.705Z,60.94
2018-04-25T03:22:26.301Z,60.90
2018-04-25T03:22:57.962Z,61.01
2018-04-25T03:23:29.560Z,60.93
2018-04-25T03:24:01.170Z,61.03
2018-04-25T03:24:32.745Z,61.00
2018-04-25T03:25:04.336Z,60.90
2018-04-25T03:25:35.907Z,61.03
2018-04-25T03:26:07.486Z,61.04
2018-04-25T03:26:39.054Z,60.97
2018-04-25T03:27:10.662Z,61.08
2018-04-25T03:27:42.266Z,61.06
2018-04-25T03:28:13.894Z,61.11
2018-04-25T03:28:45.489Z,61.05
2018-04-25T03:29:17.078Z,61.14
2018-04-25T03:29:48.658Z,61.24
2018-04-25T03:30:20.252Z,61.20
2018-04-25T03:30:51.858Z,61.14
2018-04-25T03:31:23.433Z,61.23
2018-04-25T03:31:55.072Z,61.14
2018-04-25T03:32:26.673Z,61.22
2018-04-25T03:32:58.288Z,61.11
2018-04-25T03:33:29.893Z,61.11
2018-04-25T03:34:01.481Z,61.06
2018-04-25T03:34:33.085Z,61.07
2018-04-25T03:35:04.669Z,61.08
2018-04-25T03:35:36.273Z,61.13
2018-04-25T03:36:07.858Z,61.15
2018-04-25T03:36:39.467Z,61.19
2018-04-25T03:37:11.131Z,61.18
2018-04-25T03:37:42.737Z,61.20
2018-04-25T03:38:14.350Z,61.24
2018-04-25T03:38:45.965Z,61.21
2018-04-25T03:39:17.590Z,61.21
2018-04-25T03:39:49.200Z,61.23
2018-04-25T03:40:20.800Z,61.24
2018-04-25T03:40:52.396Z,61.28
2018-04-25T03:41:24.002Z,61.30
2018-04-25T03:41:55.610Z,61.29
2018-04-25T03:42:27.181Z,61.28
2018-04-25T03:42:58.754Z,61.32
2018-04-25T03:43:30.341Z,61.31
2018-04-25T03:44:01.977Z,61.36
2018-04-25T03:44:33.592Z,61.32
2018-04-25T03:45:05.193Z,61.29
2018-04-25T03:45:36.807Z,61.28
2018-04-25T03:46:08.459Z,61.27
2018-04-25T03:46:40.034Z,61.27
2018-04-25T03:47:11.608Z,61.27
2018-04-25T03:47:43.190Z,61.25
2018-04-25T03:48:14.833Z,61.27
2018-04-25T03:48:46.509Z,61.31
2018-04-25T03:49:18.058Z,61.29
2018-04-25T03:49:49.631Z,61.24
2018-04-25T03:50:21.234Z,61.29
2018-04-25T03:50:52.829Z,61.30
2018-04-25T03:51:24.442Z,61.27
2018-04-25T03:51:56.030Z,61.30
2018-04-25T03:52:27.629Z,61.32
2018-04-25T03:52:59.263Z,61.26
2018-04-25T03:53:30.850Z,61.30
2018-04-25T03:54:02.458Z,61.28
2018-04-25T03:54:34.107Z,61.29
2018-04-25T03:55:05.690Z,61.33
2018-04-25T03:55:37.294Z,61.33
2018-04-25T03:56:08.867Z,61.37
2018-04-25T03:56:40.514Z,61.34
2018-04-25T03:57:12.136Z,61.37
2018-04-25T03:57:43.737Z,61.37
2018-04-25T03:58:15.345Z,61.36
2018-04-25T03:58:46.917Z,61.40
2018-04-25T03:59:18.508Z,61.41
2018-04-25T03:59:50.093Z,61.37
2018-04-25T04:00:21.684Z,61.40
2018-04-25T04:00:53.314Z,61.37
2018-04-25T04:01:24.918Z,61.40
2018-04-25T04:01:56.506Z,61.39
2018-04-25T04:02:28.089Z,61.34
2018-04-25T04:02:59.670Z,61.32
2018-04-25T04:03:31.254Z,61.32
2018-04-25T04:04:02.853Z,61.34
2018-04-25T04:04:34.446Z,61.38
2018-04-25T04:05:06.017Z,61.37
2018-04-25T04:05:37.602Z,61.35
2018-04-25T04:06:09.246Z,61.36
2018-04-25T04:06:40.826Z,61.34
2018-04-25T04:07:12.414Z,61.37
2018-04-25T04:07:43.995Z,61.35
2018-04-25T04:08:15.610Z,61.32
2018-04-25T04:08:47.198Z,61.31
2018-04-25T04:09:18.802Z,61.37
2018-04-25T04:09:50.457Z,61.38
2018-04-25T04:10:22.062Z,61.39
2018-04-25T04:10:53.665Z,61.35
2018-04-25T04:11:25.290Z,61.42
2018-04-25T04:11:56.883Z,61.41
2018-04-25T04:12:28.494Z,61.47
2018-04-25T04:13:00.175Z,61.41
2018-04-25T04:13:31.700Z,61.44
2018-04-25T04:14:03.276Z,61.43
2018-04-25T04:14:34.868Z,61.40
2018-04-25T04:15:06.481Z,61.46
2018-04-25T04:15:38.072Z,61.51
2018-04-25T04:16:09.678Z,61.55
2018-04-25T04:16:41.261Z,61.56
2018-04-25T04:17:12.863Z,61.58
2018-04-25T04:17:44.450Z,61.58
2018-04-25T04:18:16.093Z,61.62
2018-04-25T04:18:47.730Z,61.64
2018-04-25T04:19:19.311Z,61.63
2018-04-25T04:19:50.908Z,61.64
2018-04-25T04:20:22.518Z,61.68
2018-04-25T04:20:54.099Z,61.72
2018-04-25T04:21:25.699Z,61.74
2018-04-25T04:21:57.306Z,61.76
2018-04-25T04:22:28.914Z,61.80
2018-04-25T04:23:00.500Z,61.81
2018-04-25T04:23:32.129Z,61.83
2018-04-25T04:24:03.700Z,61.81
2018-04-25T04:24:35.328Z,61.78
2018-04-25T04:25:06.929Z,61.77
2018-04-25T04:25:38.518Z,61.77
2018-04-25T04:26:10.122Z,61.82
2018-04-25T04:26:41.692Z,61.82
2018-04-25T04:27:13.256Z,61.80
2018-04-25T04:27:44.853Z,61.81
2018-04-25T04:28:16.448Z,61.83
2018-04-25T04:28:48.092Z,61.81
2018-04-25T04:29:19.675Z,61.87
2018-04-25T04:29:51.264Z,61.87
2018-04-25T04:30:22.860Z,61.86
2018-04-25T04:30:54.456Z,61.87
2018-04-25T04:31:26.072Z,61.89
2018-04-25T04:31:57.663Z,61.93
2018-04-25T04:32:29.249Z,61.92
2018-04-25T04:33:00.833Z,61.88
2018-04-25T04:33:32.434Z,61.88
2018-04-25T04:34:04.039Z,61.88
2018-04-25T04:34:35.633Z,61.89
2018-04-25T04:35:07.227Z,61.87
2018-04-25T04:35:38.830Z,61.88
2018-04-25T04:36:10.458Z,61.87
2018-04-25T04:36:42.048Z,61.90
2018-04-25T04:37:13.630Z,61.87
2018-04-25T04:37:45.239Z,61.84
2018-04-25T04:38:16.825Z,61.87
2018-04-25T04:38:48.432Z,61.82
2018-04-25T04:39:20.029Z,61.84
2018-04-25T04:39:51.638Z,61.83
2018-04-25T04:40:23.252Z,61.84
2018-04-25T04:40:54.863Z,61.83
2018-04-25T04:41:26.478Z,61.81
2018-04-25T04:41:58.080Z,61.82
2018-04-25T04:42:29.676Z,61.83
2018-04-25T04:43:01.261Z,61.78
2018-04-25T04:43:32.871Z,61.71
2018-04-25T04:44:04.503Z,61.68
2018-04-25T04:44:36.096Z,61.70
2018-04-25T04:45:07.714Z,61.67
2018-04-25T04:45:39.321Z,61.71
2018-04-25T04:46:10.926Z,61.71
2018-04-25T04:46:42.510Z,61.71
2018-04-25T04:47:14.113Z,61.71
2018-04-25T04:47:45.722Z,61.69
2018-04-25T04:48:17.307Z,61.69
2018-04-25T04:48:48.877Z,61.69
2018-04-25T04:49:20.458Z,61.65
2018-04-25T04:49:52.067Z,61.63
2018-04-25T04:50:23.646Z,61.59
2018-04-25T04:50:55.231Z,61.51
2018-04-25T04:51:26.863Z,61.44
2018-04-25T04:51:58.486Z,61.48
2018-04-25T04:52:30.080Z,61.44
2018-04-25T04:53:01.671Z,61.41
2018-04-25T04:53:33.254Z,61.37
2018-04-25T04:54:04.824Z,61.42
2018-04-25T04:54:36.415Z,61.37
2018-04-25T04:55:08.008Z,61.35
2018-04-25T04:55:39.580Z,61.35
2018-04-25T04:56:11.165Z,61.33
2018-04-25T04:56:42.822Z,61.30
2018-04-25T04:57:14.403Z,61.30
2018-04-25T04:57:45.987Z,61.26
2018-04-25T04:58:17.576Z,61.26
2018-04-25T04:58:49.172Z,61.30
2018-04-25T04:59:20.747Z,61.29
2018-04-25T04:59:52.350Z,61.26
2018-04-25T05:00:23.949Z,61.28
2018-04-25T05:00:55.545Z,61.24
2018-04-25T05:01:27.139Z,61.23
2018-04-25T05:01:58.798Z,61.16
2018-04-25T05:02:30.386Z,61.08
2018-04-25T05:03:01.996Z,61.10
2018-04-25T05:03:33.602Z,61.10
2018-04-25T05:04:05.205Z,61.13
2018-04-25T05:04:36.794Z,61.06
2018-04-25T05:05:08.399Z,61.03
2018-04-25T05:05:39.997Z,60.97
2018-04-25T05:06:11.579Z,60.97
2018-04-25T05:06:43.158Z,60.97
2018-04-25T05:07:14.809Z,60.99
2018-04-25T05:07:46.449Z,60.89
2018-04-25T05:08:18.055Z,60.92
2018-04-25T05:08:49.625Z,60.94
2018-04-25T05:09:21.216Z,60.91
2018-04-25T05:09:52.822Z,60.86
2018-04-25T05:10:24.422Z,60.84
2018-04-25T05:10:56.018Z,60.87
2018-04-25T05:11:27.598Z,60.81
2018-04-25T05:11:59.182Z,60.91
2018-04-25T05:12:30.806Z,60.92
2018-04-25T05:13:02.403Z,60.93
2018-04-25T05:13:34.006Z,60.94
2018-04-25T05:14:05.606Z,60.91
2018-04-25T05:14:37.200Z,60.96
2018-04-25T05:15:08.811Z,60.97
2018-04-25T05:15:40.432Z,60.98
2018-04-25T05:16:12.033Z,60.96
2018-04-25T05:16:43.642Z,60.93
2018-04-25T05:17:15.280Z,60.88
2018-04-25T05:17:46.866Z,60.87
2018-04-25T05:18:18.470Z,60.88
2018-04-25T05:18:50.098Z,60.87
2018-04-25T05:19:21.687Z,60.85
2018-04-25T05:19:53.314Z,60.90
2018-04-25T05:20:24.921Z,60.91
2018-04-25T05:20:56.510Z,60.85
2018-04-25T05:21:28.097Z,60.85
2018-04-25T05:21:59.702Z,60.87
2018-04-25T05:22:31.356Z,60.88
2018-04-25T05:23:02.946Z,60.85
2018-04-25T05:23:34.543Z,60.84
2018-04-25T05:24:06.158Z,60.83
2018-04-25T05:24:37.845Z,60.82
2018-04-25T05:25:09.432Z,60.86
2018-04-25T05:25:41.023Z,60.82
2018-04-25T05:26:12.621Z,60.81
2018-04-25T05:26:44.225Z,60.75
2018-04-25T05:27:16.501Z,60.75
2018-04-25T05:27:48.073Z,60.76
2018-04-25T05:28:19.645Z,60.76
2018-04-25T05:28:51.239Z,60.72
2018-04-25T05:29:22.808Z,60.75
2018-04-25T05:29:54.409Z,60.76
2018-04-25T05:30:26.061Z,60.75
2018-04-25T05:30:57.661Z,60.78
2018-04-25T05:31:29.232Z,60.78
2018-04-25T05:32:00.883Z,60.83
2018-04-25T05:32:32.611Z,60.84
2018-04-25T05:33:04.222Z,60.83
2018-04-25T05:33:35.871Z,60.81
2018-04-25T05:34:07.518Z,60.71
2018-04-25T05:34:39.113Z,60.80
2018-04-25T05:35:10.717Z,60.78
2018-04-25T05:35:42.313Z,60.82
2018-04-25T05:36:13.905Z,60.78
2018-04-25T05:36:45.501Z,60.76
2018-04-25T05:37:17.082Z,60.74
2018-04-25T05:37:48.689Z,60.80
2018-04-25T05:38:20.352Z,60.82
2018-04-25T05:38:51.978Z,60.79
2018-04-25T05:39:23.596Z,60.74
2018-04-25T05:39:55.174Z,60.77
2018-04-25T05:40:26.760Z,60.77
2018-04-25T05:40:58.342Z,60.81
2018-04-25T05:41:29.932Z,60.79
2018-04-25T05:42:01.516Z,60.85
2018-04-25T05:42:33.935Z,60.85
2018-04-25T05:43:05.509Z,60.85
2018-04-25T05:43:37.076Z,60.84
2018-04-25T05:44:08.645Z,60.85
2018-04-25T05:44:40.293Z,60.83
2018-04-25T05:45:11.899Z,60.87
2018-04-25T05:45:43.514Z,60.89
2018-04-25T05:46:15.102Z,60.88
2018-04-25T05:46:46.702Z,60.88
2018-04-25T05:47:18.296Z,60.84
2018-04-25T05:47:49.984Z,60.84
2018-04-25T05:48:21.570Z,60.90
2018-04-25T05:48:53.141Z,60.88
2018-04-25T05:49:24.746Z,60.92
2018-04-25T05:49:56.370Z,60.91
2018-04-25T05:50:27.941Z,60.91
2018-04-25T05:50:59.674Z,60.91
2018-04-25T05:51:31.312Z,60.87
2018-04-25T05:52:02.950Z,60.88
2018-04-25T05:52:34.530Z,60.87
2018-04-25T05:53:06.110Z,60.88
2018-04-25T05:53:37.691Z,60.86
2018-04-25T05:54:09.280Z,60.82
2018-04-25T05:54:40.942Z,60.81
2018-04-25T05:55:12.540Z,60.83
2018-04-25T05:55:44.154Z,60.84
2018-04-25T05:56:15.746Z,60.85
2018-04-25T05:56:47.326Z,60.88
2018-04-25T05:57:18.903Z,60.91
2018-04-25T05:57:50.555Z,60.91
2018-04-25T05:58:22.082Z,60.85
2018-04-25T05:58:53.670Z,60.87
2018-04-25T05:59:25.250Z,60.85
2018-04-25T05:59:56.894Z,60.86
2018-04-25T06:00:28.488Z,60.88
2018-04-25T06:01:00.150Z,60.89
2018-04-25T06:01:31.734Z,60.87
2018-04-25T06:02:03.318Z,60.88
2018-04-25T06:02:34.898Z,60.88
2018-04-25T06:03:06.488Z,60.89
2018-04-25T06:03:38.071Z,60.89
2018-04-25T06:04:09.660Z,60.88
2018-04-25T06:04:41.254Z,60.88
2018-04-25T06:05:12.854Z,60.87
2018-04-25T06:05:44.449Z,60.88
2018-04-25T06:06:16.094Z,60.88
2018-04-25T06:06:47.671Z,60.91
2018-04-25T06:07:19.263Z,60.93
2018-04-25T06:07:50.852Z,60.88
2018-04-25T06:08:22.420Z,60.85
2018-04-25T06:08:54.021Z,60.84
2018-04-25T06:09:25.646Z,60.85
2018-04-25T06:09:57.248Z,60.85
2018-04-25T06:10:28.855Z,60.82
2018-04-25T06:11:00.427Z,60.82
2018-04-25T06:11:32.077Z,60.75
2018-04-25T06:12:03.654Z,60.73
2018-04-25T06:12:35.334Z,60.72
2018-04-25T06:13:06.870Z,60.75
2018-04-25T06:13:38.475Z,60.78
2018-04-25T06:14:10.070Z,60.75
2018-04-25T06:14:41.670Z,60.74
2018-04-25T06:15:13.264Z,60.70
2018-04-25T06:15:44.860Z,60.65
2018-04-25T06:16:16.481Z,60.67
2018-04-25T06:16:48.114Z,60.66
2018-04-25T06:17:19.685Z,60.70
2018-04-25T06:17:51.296Z,60.68
2018-04-25T06:18:23.574Z,60.70
2018-04-25T06:18:55.164Z,60.67
2018-04-25T06:19:26.750Z,60.70
2018-04-25T06:19:58.333Z,60.71
2018-04-25T06:20:29.942Z,60.64
2018-04-25T06:21:01.519Z,60.68
2018-04-25T06:21:33.088Z,60.67
2018-04-25T06:22:04.730Z,60.69
2018-04-25T06:22:36.328Z,60.66
2018-04-25T06:23:07.925Z,60.69
2018-04-25T06:23:39.510Z,60.67
2018-04-25T06:24:11.128Z,60.65
2018-04-25T06:24:42.729Z,60.70
2018-04-25T06:25:14.314Z,60.70
2018-04-25T06:25:45.904Z,60.69
2018-04-25T06:26:17.522Z,60.67
2018-04-25T06:26:49.110Z,60.68
2018-04-25T06:27:20.714Z,60.69
2018-04-25T06:27:52.362Z,60.71
2018-04-25T06:28:23.966Z,60.70
2018-04-25T06:28:55.664Z,60.68
2018-04-25T06:29:27.318Z,60.72
2018-04-25T06:29:58.907Z,60.71
2018-04-25T06:30:30.526Z,60.69
2018-04-25T06:31:02.551Z,60.67
2018-04-25T06:31:34.154Z,60.68
2018-04-25T06:32:05.725Z,60.71
2018-04-25T06:32:37.328Z,60.73
2018-04-25T06:33:08.951Z,60.71
2018-04-25T06:33:40.557Z,60.70
2018-04-25T06:34:12.215Z,60.69
2018-04-25T06:34:43.820Z,60.69
2018-04-25T06:35:16.431Z,60.70
2018-04-25T06:35:48.022Z,60.72
2018-04-25T06:36:19.685Z,60.70
2018-04-25T06:36:51.305Z,60.70
2018-04-25T06:37:22.957Z,60.69
2018-04-25T06:37:54.566Z,60.62
2018-04-25T06:38:26.160Z,60.66
2018-04-25T06:38:57.794Z,60.71
2018-04-25T06:39:29.460Z,60.66
2018-04-25T06:40:00.998Z,60.66
2018-04-25T06:40:32.572Z,60.70
2018-04-25T06:41:04.154Z,60.69
2018-04-25T06:41:35.720Z,60.68
2018-04-25T06:42:07.327Z,60.69
2018-04-25T06:42:38.950Z,60.69
2018-04-25T06:43:10.722Z,60.72
2018-04-25T06:43:42.338Z,60.71
2018-04-25T06:44:14.301Z,60.73
2018-04-25T06:44:45.984Z,60.76
2018-04-25T06:45:17.496Z,60.77
2018-04-25T06:45:49.072Z,60.75
2018-04-25T06:46:20.679Z,60.77
2018-04-25T06:46:52.298Z,60.77